createdAt,value
2019-04-09T00:01:07.932Z,99.90
2019-04-09T00:03:40.261Z,99.90
2019-04-09T00:06:12.641Z,99.90
2019-04-09T00:08:45.645Z,99.90
2019-04-09T00:11:17.934Z,99.90
2019-04-09T00:13:50.907Z,99.90
2019-04-09T00:16:23.650Z,99.90
2019-04-09T00:18:56.251Z,99.90
2019-04-09T00:21:29.524Z,99.90
2019-04-09T00:24:02.898Z,99.90
2019-04-09T00:26:45.600Z,99.90
2019-04-09T00:29:09.924Z,99.90
2019-04-09T00:31:42.036Z,99.90
2019-04-09T00:34:15.400Z,99.90
2019-04-09T00:36:48.466Z,99.90
2019-04-09T00:39:20.727Z,99.90
2019-04-09T00:41:53.997Z,99.90
2019-04-09T00:44:26.619Z,99.90
2019-04-09T00:46:59.652Z,99.90
2019-04-09T00:49:32.005Z,99.90
2019-04-09T00:52:04.392Z,99.90
2019-04-09T00:54:37.389Z,99.90
2019-04-09T00:57:10.834Z,99.90
2019-04-09T00:59:43.265Z,99.90
2019-04-09T01:02:15.710Z,99.90
2019-04-09T01:04:48.634Z,99.90
2019-04-09T01:07:21.023Z,99.90
2019-04-09T01:09:53.973Z,99.90
2019-04-09T01:12:26.373Z,99.90
2019-04-09T01:17:31.764Z,99.90
2019-04-09T01:20:04.927Z,99.90
2019-04-09T01:22:37.279Z,99.90
2019-04-09T01:25:22.663Z,99.90
2019-04-09T01:27:55.596Z,99.90
2019-04-09T01:30:40.528Z,99.90
2019-04-09T01:33:22.573Z,99.90
2019-04-09T01:36:23.381Z,99.90
2019-04-09T01:39:10.525Z,99.90
2019-04-09T01:41:55.906Z,99.90
2019-04-09T01:44:46.466Z,99.90
2019-04-09T01:47:33.047Z,99.90
2019-04-09T01:50:29.007Z,99.90
2019-04-09T01:53:23.857Z,99.90
2019-04-09T01:56:07.301Z,99.90
2019-04-09T01:59:08.214Z,99.90
2019-04-09T02:02:02.691Z,99.90
2019-04-09T02:05:06.940Z,99.90
2019-04-09T02:08:01.735Z,99.90
2019-04-09T02:10:52.262Z,99.90
2019-04-09T02:13:29.451Z,99.90
2019-04-09T02:16:20.941Z,99.90
2019-04-09T02:19:07.169Z,99.90
2019-04-09T02:21:57.655Z,99.90
2019-04-09T02:24:42.648Z,99.90
2019-04-09T02:27:40.124Z,99.90
2019-04-09T02:30:16.875Z,99.90
2019-04-09T02:33:07.301Z,99.90
2019-04-09T02:35:49.394Z,99.90
2019-04-09T02:38:41.513Z,99.90
2019-04-09T02:41:39.426Z,99.90
2019-04-09T02:44:30.932Z,99.90
2019-04-09T02:47:41.223Z,99.90
2019-04-09T02:50:20.088Z,99.90
2019-04-09T02:53:04.656Z,99.90
2019-04-09T02:55:44.903Z,99.90
2019-04-09T02:58:29.045Z,99.90
2019-04-09T03:01:27.000Z,99.90
2019-04-09T03:04:24.825Z,99.90
2019-04-09T03:07:17.271Z,99.90
2019-04-09T03:10:07.805Z,99.90
2019-04-09T03:12:56.014Z,99.90
2019-04-09T03:15:40.829Z,99.90
2019-04-09T03:18:35.718Z,99.90
2019-04-09T03:21:28.109Z,99.90
2019-04-09T03:24:16.376Z,99.90
2019-04-09T03:27:04.742Z,99.90
2019-04-09T03:30:03.531Z,99.90
2019-04-09T03:33:13.735Z,99.90
2019-04-09T03:35:54.288Z,99.90
2019-04-09T03:38:46.749Z,99.90
2019-04-09T03:41:45.444Z,99.90
2019-04-09T03:44:39.843Z,99.90
2019-04-09T03:50:48.835Z,99.90
2019-04-09T03:53:49.946Z,99.90
2019-04-09T03:56:36.468Z,99.90
2019-04-09T03:59:20.884Z,99.90
2019-04-09T04:01:59.544Z,99.90
2019-04-09T04:04:42.271Z,99.90
2019-04-09T04:07:23.732Z,99.90
2019-04-09T04:10:09.058Z,99.90
2019-04-09T04:13:01.974Z,99.90
2019-04-09T04:16:01.494Z,99.90
2019-04-09T04:18:59.152Z,99.90
2019-04-09T04:21:48.407Z,99.90
2019-04-09T04:24:43.269Z,99.90
2019-04-09T04:27:47.970Z,99.90
2019-04-09T04:33:23.100Z,99.90
2019-04-09T04:36:18.777Z,99.90
2019-04-09T04:39:10.882Z,99.90
2019-04-09T04:42:03.310Z,99.90
2019-04-09T04:47:52.781Z,99.90
2019-04-09T04:50:56.131Z,99.90
2019-04-09T04:53:35.752Z,99.90
2019-04-09T04:56:15.247Z,99.90
2019-04-09T04:59:05.510Z,99.90
2019-04-09T05:02:03.621Z,99.90
2019-04-09T05:05:00.316Z,99.90
2019-04-09T05:08:07.104Z,99.90
2019-04-09T05:11:05.263Z,99.90
2019-04-09T05:13:55.475Z,99.90
2019-04-09T05:16:47.254Z,99.90
2019-04-09T05:19:29.093Z,99.90
2019-04-09T05:22:23.957Z,99.90
2019-04-09T05:25:09.169Z,99.90
2019-04-09T05:27:58.424Z,99.90
2019-04-09T05:30:48.064Z,99.90
2019-04-09T05:33:38.624Z,99.90
2019-04-09T05:36:40.973Z,99.90
2019-04-09T05:39:36.467Z,99.90
2019-04-09T05:42:15.168Z,99.90
2019-04-09T05:45:05.509Z,99.90
2019-04-09T05:48:15.407Z,99.90
2019-04-09T05:51:00.550Z,99.90
2019-04-09T05:54:01.651Z,99.90
2019-04-09T05:56:56.485Z,99.90
2019-04-09T05:59:57.216Z,99.90
2019-04-09T06:02:48.520Z,99.90
2019-04-09T06:05:29.690Z,99.90
2019-04-09T06:08:35.064Z,99.90
2019-04-09T06:11:07.549Z,99.90
2019-04-09T06:13:39.929Z,99.90
2019-04-09T06:16:12.277Z,99.90
2019-04-09T06:18:44.840Z,99.90
2019-04-09T06:21:22.414Z,99.90
2019-04-09T06:23:51.477Z,99.90
2019-04-09T06:26:24.849Z,99.90
2019-04-09T06:28:57.140Z,99.90
2019-04-09T06:31:29.425Z,99.90
2019-04-09T06:34:20.771Z,99.90
2019-04-09T06:37:28.309Z,99.90
2019-04-09T06:40:10.309Z,99.90
2019-04-09T06:43:11.108Z,99.90
2019-04-09T06:46:03.285Z,99.90
2019-04-09T06:48:50.730Z,99.90
2019-04-09T06:51:48.041Z,99.90
2019-04-09T06:54:30.430Z,99.90
2019-04-09T06:57:28.294Z,99.90
2019-04-09T07:00:18.880Z,99.90
2019-04-09T07:03:09.190Z,99.90
2019-04-09T07:05:58.586Z,99.90
2019-04-09T07:08:53.368Z,99.90
2019-04-09T07:11:51.322Z,99.90
2019-04-09T07:14:48.784Z,99.90
2019-04-09T07:17:42.706Z,99.90
2019-04-09T07:20:37.141Z,99.90
2019-04-09T07:23:15.621Z,99.90
2019-04-09T07:26:25.578Z,99.90
2019-04-09T07:29:15.677Z,99.90
2019-04-09T07:32:07.055Z,99.90
2019-04-09T07:34:57.988Z,99.90
2019-04-09T07:37:44.219Z,99.90
2019-04-09T07:40:37.882Z,99.90
2019-04-09T07:43:28.024Z,99.90
2019-04-09T07:46:14.500Z,99.90
2019-04-09T07:48:59.462Z,99.90
2019-04-09T07:52:11.161Z,99.90
2019-04-09T07:55:06.760Z,99.90
2019-04-09T07:57:56.893Z,99.90
2019-04-09T08:00:52.750Z,99.90
2019-04-09T08:03:45.930Z,99.90
2019-04-09T08:06:31.382Z,99.90
2019-04-09T08:09:13.003Z,99.90
2019-04-09T08:12:00.544Z,99.90
2019-04-09T08:14:45.942Z,99.90
2019-04-09T08:17:44.903Z,99.90
2019-04-09T08:20:28.302Z,99.90
2019-04-09T08:23:24.838Z,99.90
2019-04-09T08:26:06.824Z,99.90
2019-04-09T08:29:02.923Z,99.90
2019-04-09T08:31:55.296Z,99.90
2019-04-09T08:34:39.035Z,99.90
2019-04-09T08:37:34.498Z,99.90
2019-04-09T08:40:16.509Z,99.90
2019-04-09T08:43:09.610Z,99.90
2019-04-09T08:46:03.967Z,99.90
2019-04-09T08:49:00.469Z,99.90
2019-04-09T08:51:51.650Z,99.90
2019-04-09T08:54:44.257Z,99.90
2019-04-09T08:57:29.370Z,99.90
2019-04-09T09:00:43.243Z,99.90
2019-04-09T09:03:12.718Z,99.90
2019-04-09T09:06:16.886Z,99.90
2019-04-09T09:09:01.366Z,99.90
2019-04-09T09:11:39.210Z,99.90
2019-04-09T09:14:32.122Z,99.90
2019-04-09T09:17:27.428Z,99.90
2019-04-09T09:20:18.473Z,99.60
2019-04-09T09:22:59.861Z,99.80
2019-04-09T09:25:49.919Z,99.90
2019-04-09T09:28:42.769Z,99.90
2019-04-09T09:31:27.746Z,99.90
2019-04-09T09:34:10.654Z,99.50
2019-04-09T09:37:01.826Z,98.80
2019-04-09T09:39:51.444Z,98.20
2019-04-09T09:42:32.150Z,98.10
2019-04-09T09:45:27.198Z,97.70
2019-04-09T09:48:11.334Z,96.70
2019-04-09T09:51:01.624Z,95.60
2019-04-09T09:53:44.223Z,95.50
2019-04-09T09:56:36.128Z,95.90
2019-04-09T09:59:30.395Z,96.10
2019-04-09T10:02:14.776Z,95.60
2019-04-09T10:05:15.492Z,95.30
2019-04-09T10:08:08.700Z,95.30
2019-04-09T10:11:06.855Z,95.50
2019-04-09T10:13:46.543Z,95.80
2019-04-09T10:16:50.680Z,95.80
2019-04-09T10:19:33.149Z,95.90
2019-04-09T10:22:25.431Z,96.30
2019-04-09T10:25:06.183Z,95.70
2019-04-09T10:28:10.505Z,95.60
2019-04-09T10:31:21.263Z,95.80
2019-04-09T10:34:10.838Z,96.30
2019-04-09T10:37:16.070Z,95.60
2019-04-09T10:40:06.539Z,95.70
2019-04-09T10:43:00.284Z,94.40
2019-04-09T10:45:59.391Z,93.50
2019-04-09T10:48:50.516Z,93.20
2019-04-09T10:51:33.426Z,93.70
2019-04-09T10:54:25.680Z,94.80
2019-04-09T10:57:26.605Z,95.00
2019-04-09T11:00:28.305Z,94.10
2019-04-09T11:03:12.605Z,93.90
2019-04-09T11:06:22.963Z,93.80
2019-04-09T11:09:12.619Z,93.70
2019-04-09T11:11:57.632Z,93.20
2019-04-09T11:14:49.769Z,93.20
2019-04-09T11:17:40.691Z,93.40
2019-04-09T11:20:44.013Z,93.50
2019-04-09T11:23:35.277Z,93.10
2019-04-09T11:26:25.982Z,92.10
2019-04-09T11:29:08.082Z,92.10
2019-04-09T11:32:05.602Z,92.20
2019-04-09T11:34:53.984Z,92.30
2019-04-09T11:37:46.692Z,91.50
2019-04-09T11:40:25.115Z,91.40
2019-04-09T11:43:17.969Z,91.50
2019-04-09T11:46:08.431Z,92.00
2019-04-09T11:49:00.885Z,91.80
2019-04-09T11:51:45.825Z,91.20
2019-04-09T11:54:35.998Z,90.40
2019-04-09T11:57:22.412Z,90.70
2019-04-09T12:00:08.468Z,90.40
2019-04-09T12:02:46.821Z,90.50
2019-04-09T12:05:37.940Z,89.40
2019-04-09T12:08:30.808Z,88.30
2019-04-09T12:11:20.784Z,88.90
2019-04-09T12:14:13.163Z,89.30
2019-04-09T12:17:04.208Z,85.40
2019-04-09T12:19:42.448Z,83.60
2019-04-09T12:22:41.881Z,83.20
2019-04-09T12:25:29.113Z,84.30
2019-04-09T12:28:19.259Z,84.50
2019-04-09T12:31:10.174Z,84.40
2019-04-09T12:33:59.814Z,84.70
2019-04-09T12:37:04.936Z,85.10
2019-04-09T12:39:57.850Z,84.60
2019-04-09T12:42:51.044Z,85.00
2019-04-09T12:45:51.667Z,84.00
2019-04-09T12:48:37.586Z,85.40
2019-04-09T12:51:27.279Z,85.90
2019-04-09T12:54:22.346Z,85.80
2019-04-09T12:57:02.171Z,84.90
2019-04-09T12:59:47.597Z,81.90
2019-04-09T13:02:33.569Z,81.60
2019-04-09T13:05:29.673Z,83.10
2019-04-09T13:08:30.254Z,82.40
2019-04-09T13:11:20.905Z,83.10
2019-04-09T13:14:25.663Z,82.40
2019-04-09T13:17:29.900Z,82.80
2019-04-09T13:20:20.826Z,82.80
2019-04-09T13:23:03.969Z,82.90
2019-04-09T13:25:59.337Z,80.30
2019-04-09T13:28:57.333Z,80.60
2019-04-09T13:31:59.099Z,81.60
2019-04-09T13:34:50.028Z,81.10
2019-04-09T13:37:39.785Z,81.20
2019-04-09T13:40:33.033Z,81.00
2019-04-09T13:43:13.271Z,79.90
2019-04-09T13:45:55.969Z,79.40
2019-04-09T13:48:43.975Z,79.30
2019-04-09T13:51:38.191Z,79.10
2019-04-09T13:54:10.859Z,79.90
2019-04-09T13:56:43.523Z,80.10
2019-04-09T13:59:16.947Z,80.10
2019-04-09T14:01:50.562Z,78.40
2019-04-09T14:04:30.518Z,77.80
2019-04-09T14:07:03.594Z,75.50
2019-04-09T14:09:36.345Z,74.60
2019-04-09T14:12:08.683Z,74.60
2019-04-09T14:14:40.933Z,73.60
2019-04-09T14:17:13.680Z,74.80
2019-04-09T14:19:52.771Z,74.00
2019-04-09T14:22:20.378Z,74.10
2019-04-09T14:24:52.990Z,75.00
2019-04-09T14:27:31.512Z,75.10
2019-04-09T14:30:00.009Z,75.10
2019-04-09T14:32:34.027Z,74.80
2019-04-09T14:35:07.677Z,73.80
2019-04-09T14:37:41.767Z,73.10
2019-04-09T14:40:14.077Z,73.60
2019-04-09T14:42:46.604Z,73.50
2019-04-09T14:45:19.118Z,73.40
2019-04-09T14:47:52.717Z,73.30
2019-04-09T14:50:26.051Z,71.30
2019-04-09T14:53:00.928Z,70.60
2019-04-09T14:55:34.139Z,69.10
2019-04-09T14:58:06.810Z,69.40
2019-04-09T15:00:41.409Z,69.00
2019-04-09T15:03:21.644Z,70.40
2019-04-09T15:05:48.088Z,70.50
2019-04-09T15:08:21.371Z,70.60
2019-04-09T15:10:54.428Z,70.60
2019-04-09T15:13:26.786Z,69.40
2019-04-09T15:15:59.158Z,69.60
2019-04-09T15:18:31.715Z,70.00
2019-04-09T15:21:23.066Z,70.60
2019-04-09T15:23:55.466Z,69.20
2019-04-09T15:26:28.054Z,70.90
2019-04-09T15:29:00.491Z,71.80
2019-04-09T15:31:33.507Z,71.60
2019-04-09T15:34:06.152Z,71.10
2019-04-09T15:36:39.841Z,74.70
2019-04-09T15:39:15.531Z,70.20
2019-04-09T15:41:48.918Z,69.60
2019-04-09T15:44:23.634Z,69.30
2019-04-09T15:46:55.702Z,68.40
2019-04-09T15:49:28.289Z,68.80
2019-04-09T15:52:01.544Z,68.40
2019-04-09T15:54:34.064Z,68.30
2019-04-09T15:57:07.517Z,68.10
2019-04-09T15:59:40.459Z,67.80
2019-04-09T16:02:12.773Z,67.50
2019-04-09T16:04:45.241Z,67.50
2019-04-09T16:07:17.730Z,68.40
2019-04-09T16:09:49.951Z,68.90
2019-04-09T16:12:22.863Z,69.30
2019-04-09T16:14:56.403Z,69.20
2019-04-09T16:17:28.732Z,69.20
2019-04-09T16:20:00.905Z,70.00
2019-04-09T16:22:34.734Z,69.60
2019-04-09T16:25:09.584Z,70.70
2019-04-09T16:27:41.267Z,70.00
2019-04-09T16:30:13.907Z,69.50
2019-04-09T16:32:58.677Z,70.10
2019-04-09T16:35:21.006Z,70.50
2019-04-09T16:37:54.041Z,70.10
2019-04-09T16:40:26.607Z,70.60
2019-04-09T16:43:04.025Z,71.40
2019-04-09T16:45:37.708Z,71.50
2019-04-09T16:48:10.554Z,70.90
2019-04-09T16:50:43.880Z,70.60
2019-04-09T16:53:17.280Z,70.50
2019-04-09T16:55:49.596Z,70.90
2019-04-09T16:58:22.211Z,70.60
2019-04-09T17:00:54.996Z,70.60
2019-04-09T17:03:37.733Z,70.70
2019-04-09T17:06:02.461Z,71.10
2019-04-09T17:08:35.718Z,71.20
2019-04-09T17:11:08.144Z,71.90
2019-04-09T17:13:41.359Z,72.00
2019-04-09T17:16:14.174Z,72.00
2019-04-09T17:18:47.533Z,73.10
2019-04-09T17:21:21.294Z,72.50
2019-04-09T17:23:54.057Z,72.50
2019-04-09T17:26:26.819Z,72.40
2019-04-09T17:29:00.257Z,72.70
2019-04-09T17:31:36.366Z,72.60
2019-04-09T17:34:22.706Z,72.30
2019-04-09T17:36:46.815Z,72.20
2019-04-09T17:39:19.447Z,72.20
2019-04-09T17:42:01.805Z,72.70
2019-04-09T17:44:27.167Z,74.00
2019-04-09T17:47:00.003Z,75.70
2019-04-09T17:49:34.057Z,78.00
2019-04-09T17:52:06.340Z,78.80
2019-04-09T17:54:41.916Z,79.00
2019-04-09T17:57:14.872Z,79.30
2019-04-09T17:59:48.058Z,79.20
2019-04-09T18:02:24.204Z,80.10
2019-04-09T18:04:57.682Z,80.20
2019-04-09T18:07:31.986Z,80.20
2019-04-09T18:10:05.499Z,80.90
2019-04-09T18:12:38.973Z,81.00
2019-04-09T18:15:11.844Z,81.50
2019-04-09T18:17:44.350Z,82.40
2019-04-09T18:20:19.392Z,81.60
2019-04-09T18:22:55.787Z,82.10
2019-04-09T18:25:28.372Z,81.50
2019-04-09T18:28:02.321Z,82.50
2019-04-09T18:30:36.072Z,81.80
2019-04-09T18:33:08.352Z,82.30
2019-04-09T18:35:41.931Z,81.70
2019-04-09T18:38:14.801Z,81.50
2019-04-09T18:40:47.334Z,81.80
2019-04-09T18:43:20.372Z,82.30
2019-04-09T18:45:53.399Z,82.60
2019-04-09T18:48:38.058Z,82.80
2019-04-09T18:51:03.600Z,83.20
2019-04-09T18:53:36.413Z,83.30
2019-04-09T18:56:09.848Z,83.30
2019-04-09T18:58:43.066Z,83.30
2019-04-09T19:01:15.357Z,83.40
2019-04-09T19:03:47.586Z,83.40
2019-04-09T19:06:20.806Z,83.50
2019-04-09T19:08:53.472Z,83.50
2019-04-09T19:11:25.776Z,83.60
2019-04-09T19:13:57.963Z,84.20
2019-04-09T19:16:30.439Z,84.40
2019-04-09T19:19:05.958Z,84.80
2019-04-09T19:21:38.369Z,84.40
2019-04-09T19:24:10.871Z,85.00
2019-04-09T19:26:44.464Z,85.30
2019-04-09T19:29:16.814Z,85.20
2019-04-09T19:31:49.477Z,85.40
2019-04-09T19:34:23.431Z,85.30
2019-04-09T19:36:56.828Z,85.30
2019-04-09T19:39:29.701Z,85.20
2019-04-09T19:42:11.043Z,85.50
2019-04-09T19:44:37.635Z,85.90
2019-04-09T19:47:11.352Z,86.10
2019-04-09T19:49:43.999Z,86.20
2019-04-09T19:52:16.231Z,85.90
2019-04-09T19:54:49.425Z,86.10
2019-04-09T19:57:22.041Z,85.80
2019-04-09T19:59:54.978Z,86.30
2019-04-09T20:02:27.602Z,86.10
2019-04-09T20:05:00.141Z,86.40
2019-04-09T20:07:32.574Z,86.60
2019-04-09T20:10:08.494Z,86.90
2019-04-09T20:12:41.709Z,86.40
2019-04-09T20:15:15.500Z,86.40
2019-04-09T20:17:49.118Z,86.50
2019-04-09T20:20:24.333Z,86.80
2019-04-09T20:22:59.651Z,86.70
2019-04-09T20:25:32.071Z,86.70
2019-04-09T20:28:05.533Z,87.10
2019-04-09T20:30:38.498Z,87.10
2019-04-09T20:33:10.906Z,87.00
2019-04-09T20:35:49.819Z,87.20
2019-04-09T20:38:18.510Z,87.80
2019-04-09T20:40:50.925Z,87.80
2019-04-09T20:43:24.632Z,88.20
2019-04-09T20:45:57.504Z,88.30
2019-04-09T20:48:29.859Z,88.50
2019-04-09T20:51:02.252Z,88.70
2019-04-09T20:53:34.375Z,88.50
2019-04-09T20:56:07.336Z,88.70
2019-04-09T20:58:39.574Z,88.90
2019-04-09T21:01:18.737Z,88.70
2019-04-09T21:04:02.109Z,89.00
2019-04-09T21:06:31.109Z,89.70
2019-04-09T21:09:06.396Z,90.00
2019-04-09T21:11:40.152Z,90.30
2019-04-09T21:14:12.576Z,90.30
2019-04-09T21:16:44.910Z,90.40
2019-04-09T21:19:18.715Z,90.60
2019-04-09T21:21:51.916Z,90.60
2019-04-09T21:24:24.326Z,90.90
2019-04-09T21:26:56.738Z,90.90
2019-04-09T21:29:28.882Z,91.20
2019-04-09T21:32:02.073Z,91.30
2019-04-09T21:34:34.760Z,91.60
2019-04-09T21:37:08.059Z,91.80
2019-04-09T21:39:41.308Z,92.00
2019-04-09T21:42:13.885Z,92.20
2019-04-09T21:44:47.107Z,92.30
2019-04-09T21:47:20.479Z,92.70
2019-04-09T21:49:52.751Z,93.00
2019-04-09T21:54:58.068Z,93.30
2019-04-09T21:57:31.459Z,93.80
2019-04-09T22:00:09.644Z,94.30
2019-04-09T22:02:42.725Z,94.90
2019-04-09T22:05:14.949Z,94.90
2019-04-09T22:07:47.562Z,94.90
2019-04-09T22:10:19.666Z,95.30
2019-04-09T22:12:51.877Z,95.70
2019-04-09T22:15:24.976Z,95.80
2019-04-09T22:18:10.056Z,95.80
2019-04-09T22:20:31.766Z,96.10
2019-04-09T22:23:04.042Z,96.30
2019-04-09T22:25:36.769Z,96.50
2019-04-09T22:28:08.850Z,96.60
2019-04-09T22:30:41.276Z,97.20
2019-04-09T22:33:16.327Z,97.10
2019-04-09T22:35:47.684Z,97.40
2019-04-09T22:38:20.249Z,97.70
2019-04-09T22:40:52.991Z,97.60
2019-04-09T22:43:25.197Z,97.80
2019-04-09T22:45:57.940Z,97.70
2019-04-09T22:48:30.959Z,97.80
2019-04-09T22:51:04.229Z,97.90
2019-04-09T22:53:36.619Z,98.20
2019-04-09T22:56:09.098Z,98.40
2019-04-09T22:58:41.733Z,98.40
2019-04-09T23:01:26.603Z,98.70
2019-04-09T23:04:12.062Z,99.00
2019-04-09T23:07:12.704Z,99.40
2019-04-09T23:09:51.257Z,99.70
2019-04-09T23:12:43.757Z,99.80
2019-04-09T23:15:23.582Z,99.90
2019-04-09T23:17:56.688Z,99.90
2019-04-09T23:20:28.929Z,99.90
2019-04-09T23:23:01.375Z,99.90
2019-04-09T23:25:33.689Z,99.90
2019-04-09T23:28:05.797Z,99.90
2019-04-09T23:30:37.909Z,99.90
2019-04-09T23:33:12.221Z,99.90
2019-04-09T23:35:45.454Z,99.90
2019-04-09T23:38:18.693Z,99.90
2019-04-09T23:40:51.288Z,99.90
2019-04-09T23:43:23.788Z,99.90
2019-04-09T23:45:57.093Z,99.90
2019-04-09T23:48:30.325Z,99.90
2019-04-09T23:51:05.435Z,99.90
2019-04-09T23:53:37.644Z,99.90
2019-04-09T23:56:09.744Z,99.90
2019-04-09T23:58:42.003Z,99.90
